Dalhart, TX

1:53 PM CDT on September 03, 2015 (GMT -0500)
Keeler Ave | | Change Station
CLOSE
Current Station
Personal Weather Station
Location: Dalhart, TX
Elevation: 3993 ft
Nearby Weather Stations

Elev 3993 ft 36.06 °N, 102.52 °W | Updated 22 seconds ago

Clear
Clear
82.8 °F
Feels Like 82 °F
N
0.0
Wind Variable Wind from East
Gusts 0.0 mph

Today
High -- | Low -- °F
--% Chance of Precip.
Yesterday
High -- | Low -- °F
Precip. -- in
7:23 AM 8:15 PM
Waning Gibbous, 68% visible
Pressure 29.78 in
Visibility 10.0 miles
Clouds Clear
Heat Index 82 °F
Dew Point 52 °F
Humidity 35%
Rainfall 0.00 in
Snow Depth Not available.
UV 0.0 out of 12
Pollen 10.50 out of 12
Air Quality Not available.
Flu Activity Not available.
METAR KDHT 031753Z AUTO 24016G21KT 10SM CLR 34/09 A2999 RMK AO2 SLP085 T03440094 10344 20161 58007
Pressure 29.78 in
Visibility 10.0 miles
Clouds Clear
Heat Index 82 °F
Dew Point 52 °F
Humidity 35%
Rainfall 0.00 in
Snow Depth Not available.
UV 0.0 out of 12
Pollen 10.50 out of 12
Air Quality Not available.
Flu Activity Not available.
METAR KDHT 031753Z AUTO 24016G21KT 10SM CLR 34/09 A2999 RMK AO2 SLP085 T03440094 10344 20161 58007

10-Day Weather Forecast

×

Almanac

Astronomy

Sep. 03, 2015 Rise Set
Actual Time
Civil Twilight
Nautical Twilight
Astronomical Twilight
Moon
Length of Visible Light
Length of Day
Tomorrow will be .
, % of the Moon is Illuminated

Today's Extremes

State Highs State Lows

Community

WunderPhotos

Upload Photos

1,852,001 photos uploaded!

WunderBlogs® & News

Nearby

Air Quality

  Air Quality AQ Index Pollutant
Not available.

Snow Depth

Station Depth Elevation

Earthquake Activity

City Distance Mag. Time & Date
Minimum magnitude displayed is 2.5.

Coastal Water Temperatures

Place Temperature

Stations

Nearby Weather Stations

Station Location Temp. Windchill Dew Point Humidity Wind Precip. Elev Updated Type